D/T METAR WX W/DIR W/SPE G/SPE TEMP DEWP
16/01/19 03:20 EGJJ 160320Z AUTO 20014KT 9999 BKN012/// BKN016/// OVC019/// 07/05 Q1014 SSW (200°) 16.1mph 7°C 5°C
16/01/19 02:50 EGJJ 160250Z AUTO 20012KT 9999 BKN015/// BKN017/// OVC020/// 07/04 Q1015 SSW (200°) 13.8mph 7°C 4°C
16/01/19 01:50 EGJJ 160150Z AUTO 21013KT 9999 FEW016/// OVC021/// 07/04 Q1015 SSW (210°) 15.0mph 7°C 4°C
16/01/19 01:20 EGJJ 160120Z AUTO 22014KT 9999 BKN015/// OVC017/// 07/05 Q1016 SW (220°) 16.1mph 7°C 5°C
16/01/19 00:50 EGJJ 160050Z AUTO 21012KT 9999 OVC016/// 07/04 Q1016 SSW (210°) 13.8mph 7°C 4°C
16/01/19 00:20 EGJJ 160020Z AUTO 20010KT 9999 BKN018/// OVC020/// 07/04 Q1017 SSW (200°) 11.5mph 7°C 4°C
15/01/19 23:50 EGJJ 152350Z AUTO 22012KT 9999 OVC017/// 07/04 Q1017 SW (220°) 13.8mph 7°C 4°C
15/01/19 22:50 EGJJ 152250Z AUTO 22012KT 9999 SCT015/// BKN019/// OVC022/// 07/05 Q1018 SW (220°) 13.8mph 7°C 5°C
15/01/19 22:20 EGJJ 152220Z AUTO 22013KT 9999 FEW015/// SCT017/// OVC022/// 07/05 Q1018 SW (220°) 15.0mph 7°C 5°C
15/01/19 21:50 EGJJ 152150Z AUTO 22013KT 9999 OVC026/// 07/05 Q1018 SW (220°) 15.0mph 7°C 5°C
15/01/19 21:20 EGJJ 152120Z AUTO 22013KT 9999 OVC025/// 07/05 Q1019 SW (220°) 15.0mph 7°C 5°C
15/01/19 20:50 EGJJ 152050Z AUTO 22011KT 9999 SCT014/// BKN017/// BKN023/// 08/05 Q1019 SW (220°) 12.7mph 8°C 5°C
15/01/19 20:20 EGJJ 152020Z 22011KT 9999 SCT013 SCT030 08/06 Q1019 SW (220°) 12.7mph 8°C 6°C
15/01/19 19:50 EGJJ 151950Z 22009KT 9999 SCT012 SCT029 07/06 Q1019 SW (220°) 10.4mph 7°C 6°C
15/01/19 19:20 EGJJ 151920Z 21010KT 9999 FEW010 SCT012 BKN027 07/06 Q1019 SSW (210°) 11.5mph 7°C 6°C
15/01/19 18:50 EGJJ 151850Z 22010KT 9999 -DZ SCT010 SCT025 07/06 Q1020 -DZ SW (220°) 11.5mph 7°C 6°C
15/01/19 18:20 EGJJ 151820Z 22011KT 9999 SCT010 BKN017 07/06 Q1020 SW (220°) 12.7mph 7°C 6°C
15/01/19 17:50 EGJJ 151750Z 22011KT 9999 SCT010 BKN024 07/06 Q1020 SW (220°) 12.7mph 7°C 6°C
15/01/19 16:50 EGJJ 151650Z 22011KT 9999 SCT009 BKN011 07/06 Q1021 SW (220°) 12.7mph 7°C 6°C
15/01/19 16:20 EGJJ 151620Z 23013KT 9999 SCT009 BKN011 08/06 Q1021 SW (230°) 15.0mph 8°C 6°C
15/01/19 15:20 EGJJ 151520Z 23011KT 9999 SCT008 BKN012 08/06 Q1021 SW (230°) 12.7mph 8°C 6°C
15/01/19 14:50 EGJJ 151450Z 23012KT 9999 FEW008 BKN012 08/06 Q1021 SW (230°) 13.8mph 8°C 6°C
15/01/19 14:20 EGJJ 151420Z 23013KT 9999 VCSH FEW008 BKN012 08/06 Q1021 VCSH SW (230°) 15.0mph 8°C 6°C
15/01/19 13:20 EGJJ 151320Z 23014KT 9999 VCSH FEW008 BKN011 BKN023 08/07 Q1022 VCSH SW (230°) 16.1mph 8°C 7°C
15/01/19 12:50 EGJJ 151250Z 24013KT 9999 VCSH SCT007 BKN010 08/07 Q1022 VCSH WSW (240°) 15.0mph 8°C 7°C
15/01/19 12:20 EGJJ 151220Z 22010KT 9999 VCSH FEW004 SCT005 BKN010 08/08 Q1023 VCSH SW (220°) 11.5mph 8°C 8°C
15/01/19 11:50 EGJJ 151150Z 23010KT 9999 VCSH FEW005 BKN010 08/07 Q1023 VCSH SW (230°) 11.5mph 8°C 7°C
15/01/19 11:20 EGJJ 151120Z 23009KT 9999 FEW006 BKN008 08/07 Q1023 SW (230°) 10.4mph 8°C 7°C
15/01/19 10:50 EGJJ 151050Z 22007KT 9999 VCSH FEW007 SCT022 08/07 Q1024 VCSH SW (220°) 8.1mph 8°C 7°C
15/01/19 10:20 EGJJ 151020Z 22008KT 9999 VCSH FEW006 BKN027 08/07 Q1024 VCSH SW (220°) 9.2mph 8°C 7°C
15/01/19 09:50 EGJJ 150950Z 22007KT 9999 VCSH FEW022 BKN027 08/07 Q1024 VCSH SW (220°) 8.1mph 8°C 7°C
15/01/19 09:20 EGJJ 150920Z 23009KT 9999 FEW004 BKN007 08/07 Q1024 SW (230°) 10.4mph 8°C 7°C
15/01/19 08:50 EGJJ 150850Z 26008KT 7000 -RADZ SCT003 BKN004 07/07 Q1024 -RA -DZ W (260°) 9.2mph 7°C 7°C
15/01/19 08:20 EGJJ 150820Z 27007KT 6000 -RADZ FEW003 BKN004 07/07 Q1024 -RA -DZ W (270°) 8.1mph 7°C 7°C
15/01/19 07:50 EGJJ 150750Z 27005KT 9000 -DZRA FEW005 BKN006 08/06 Q1024 -DZ -RA W (270°) 5.8mph 8°C 6°C
15/01/19 07:20 EGJJ 150720Z 28006KT 9999 -DZ FEW014 BKN016 08/05 Q1024 -DZ W (280°) 6.9mph 8°C 5°C
15/01/19 06:50 EGJJ 150650Z 26006KT 9999 BKN020 08/05 Q1024 W (260°) 6.9mph 8°C 5°C
15/01/19 06:20 EGJJ 150620Z 26009KT 9999 BKN022 08/05 Q1024 W (260°) 10.4mph 8°C 5°C
15/01/19 05:50 EGJJ 150550Z 26005KT 9999 BKN022 08/05 Q1024 W (260°) 5.8mph 8°C 5°C
15/01/19 05:20 EGJJ 150520Z AUTO 29003KT 9999 OVC023/// 08/04 Q1024 WNW (290°) 3.5mph 8°C 4°C
15/01/19 04:50 EGJJ 150450Z AUTO 27005KT 9999 OVC024/// 08/04 Q1024 W (270°) 5.8mph 8°C 4°C
15/01/19 04:20 EGJJ 150420Z AUTO 28006KT 9999 OVC025/// 08/04 Q1024 W (280°) 6.9mph 8°C 4°C
15/01/19 03:50 EGJJ 150350Z AUTO 30003KT 9999 OVC027/// 08/03 Q1025 WNW (300°) 3.5mph 8°C 3°C
15/01/19 03:20 EGJJ 150320Z AUTO 31005KT 9999 OVC028/// 08/03 Q1025 NW (310°) 5.8mph 8°C 3°C
15/01/19 02:50 EGJJ 150250Z AUTO 32004KT 300V360 9999 OVC028/// 08/03 Q1025 NW (320°) 4.6mph 8°C 3°C
15/01/19 02:20 EGJJ 150220Z AUTO 33005KT 290V350 9999 BKN029/// OVC033/// 08/03 Q1025 NNW (330°) 5.8mph 8°C 3°C
15/01/19 01:50 EGJJ 150150Z AUTO 30006KT 9999 OVC030/// 08/03 Q1025 WNW (300°) 6.9mph 8°C 3°C
15/01/19 01:20 EGJJ 150120Z AUTO 30006KT 9999 OVC031/// 08/02 Q1025 WNW (300°) 6.9mph 8°C 2°C
15/01/19 00:50 EGJJ 150050Z AUTO 31003KT 9999 OVC031/// 08/03 Q1025 NW (310°) 3.5mph 8°C 3°C
15/01/19 00:20 EGJJ 150020Z AUTO 29006KT 9999 OVC032/// 08/03 Q1025 WNW (290°) 6.9mph 8°C 3°C
14/01/19 23:50 EGJJ 142350Z AUTO 28007KT 9999 OVC032/// 08/03 Q1025 W (280°) 8.1mph 8°C 3°C
14/01/19 23:20 EGJJ 142320Z AUTO 28006KT 9999 OVC032/// 08/03 Q1025 W (280°) 6.9mph 8°C 3°C
14/01/19 22:50 EGJJ 142250Z AUTO 31004KT 9999 OVC033/// 08/03 Q1025 NW (310°) 4.6mph 8°C 3°C
14/01/19 22:20 EGJJ 142220Z VRB02KT 9999 BKN032 08/03 Q1025 N (0°) 2.3mph 8°C 3°C
14/01/19 21:50 EGJJ 142150Z 29006KT 9999 BKN034 08/03 Q1025 WNW (290°) 6.9mph 8°C 3°C
14/01/19 21:20 EGJJ 142120Z 30005KT 9999 BKN034 08/02 Q1025 WNW (300°) 5.8mph 8°C 2°C
14/01/19 20:50 EGJJ 142050Z 32005KT 290V350 9999 BKN035 08/02 Q1025 NW (320°) 5.8mph 8°C 2°C
14/01/19 20:20 EGJJ 142020Z 29004KT 260V330 9999 BKN036 08/02 Q1025 WNW (290°) 4.6mph 8°C 2°C
14/01/19 19:50 EGJJ 141950Z 31004KT 9999 BKN034 08/02 Q1025 NW (310°) 4.6mph 8°C 2°C
14/01/19 19:20 EGJJ 141920Z 32004KT 280V350 9999 BKN034 08/02 Q1025 NW (320°) 4.6mph 8°C 2°C
14/01/19 18:50 EGJJ 141850Z 32005KT 9999 BKN036 08/02 Q1025 NW (320°) 5.8mph 8°C 2°C
14/01/19 18:20 EGJJ 141820Z 32004KT 290V350 9999 BKN033 08/03 Q1025 NW (320°) 4.6mph 8°C 3°C
14/01/19 17:50 EGJJ 141750Z 30007KT 9999 BKN033 08/03 Q1025 WNW (300°) 8.1mph 8°C 3°C
14/01/19 16:50 EGJJ 141650Z 34008KT 300V020 9999 BKN032 08/02 Q1025 NNW (340°) 9.2mph 8°C 2°C
14/01/19 16:20 EGJJ 141620Z 32009KT 290V360 9999 BKN033 08/03 Q1025 NW (320°) 10.4mph 8°C 3°C
14/01/19 15:50 EGJJ 141550Z 32006KT 290V010 9999 OVC033 09/03 Q1024 NW (320°) 6.9mph 9°C 3°C
14/01/19 15:20 EGJJ 141520Z 31008KT 280V340 9999 BKN031 09/03 Q1024 NW (310°) 9.2mph 9°C 3°C
14/01/19 14:50 EGJJ 141450Z 32008KT 290V350 9999 BKN035 09/03 Q1024 NW (320°) 9.2mph 9°C 3°C
14/01/19 14:20 EGJJ 141420Z 32008KT 9999 BKN032 09/03 Q1024 NW (320°) 9.2mph 9°C 3°C
14/01/19 13:50 EGJJ 141350Z 32008KT 290V350 9999 BKN033 09/03 Q1024 NW (320°) 9.2mph 9°C 3°C
14/01/19 13:20 EGJJ 141320Z 31009KT 290V350 9999 BKN032 09/03 Q1024 NW (310°) 10.4mph 9°C 3°C
14/01/19 12:50 EGJJ 141250Z 31008KT 290V350 9999 BKN031 09/03 Q1024 NW (310°) 9.2mph 9°C 3°C
14/01/19 12:20 EGJJ 141220Z 32009KT 290V350 9999 BKN031 09/03 Q1024 NW (320°) 10.4mph 9°C 3°C
14/01/19 11:20 EGJJ 141120Z 33008KT 300V010 9999 BKN032 09/03 Q1024 NNW (330°) 9.2mph 9°C 3°C
14/01/19 10:50 EGJJ 141050Z 32010KT 9999 BKN034 09/03 Q1024 NW (320°) 11.5mph 9°C 3°C
14/01/19 10:20 EGJJ 141020Z 31011KT 290V360 9999 BKN032 09/03 Q1024 NW (310°) 12.7mph 9°C 3°C
14/01/19 09:50 EGJJ 140950Z 33010KT 9999 BKN033 09/03 Q1024 NNW (330°) 11.5mph 9°C 3°C
14/01/19 09:20 EGJJ 140920Z 32007KT 280V360 9999 BKN032 09/03 Q1023 NW (320°) 8.1mph 9°C 3°C
14/01/19 08:50 EGJJ 140850Z 33009KT 300V010 9999 BKN034 09/03 Q1023 NNW (330°) 10.4mph 9°C 3°C
14/01/19 07:50 EGJJ 140750Z 33009KT 300V010 9999 FEW032 BKN035 09/03 Q1022 NNW (330°) 10.4mph 9°C 3°C
14/01/19 07:20 EGJJ 140720Z 32007KT 290V360 9999 BKN032 09/03 Q1022 NW (320°) 8.1mph 9°C 3°C
14/01/19 06:50 EGJJ 140650Z 32009G19KT 290V010 9999 BKN032 09/03 Q1022 NW (320°) 10.4mph 21.9mph 9°C 3°C
14/01/19 06:20 EGJJ 140620Z 33010KT 270V360 9999 BKN033 09/03 Q1022 NNW (330°) 11.5mph 9°C 3°C
14/01/19 05:20 EGJJ 140520Z AUTO 33011KT 300V360 9999 OVC033/// 09/03 Q1021 NNW (330°) 12.7mph 9°C 3°C
14/01/19 04:50 EGJJ 140450Z AUTO 32012G25KT 300V360 9999 OVC031/// 09/03 Q1021 NW (320°) 13.8mph 28.8mph 9°C 3°C
14/01/19 04:20 EGJJ 140420Z AUTO 33012KT 290V360 9999 OVC033/// 09/03 Q1021 NNW (330°) 13.8mph 9°C 3°C
14/01/19 03:50 EGJJ 140350Z AUTO 33014G26KT 310V010 9999 BKN031/// 09/04 Q1021 NNW (330°) 16.1mph 29.9mph 9°C 4°C
14/01/19 03:20 EGJJ 140320Z AUTO 33015G26KT 300V360 9999 FEW037/// 09/04 Q1020 NNW (330°) 17.3mph 29.9mph 9°C 4°C
14/01/19 02:50 EGJJ 140250Z AUTO 32014KT 290V350 9999 OVC034/// 10/06 Q1020 NW (320°) 16.1mph 10°C 6°C
14/01/19 01:50 EGJJ 140150Z AUTO 31012KT 9999 FEW026/// BKN037/// 10/07 Q1019 NW (310°) 13.8mph 10°C 7°C
14/01/19 01:20 EGJJ 140120Z AUTO 30014KT 9999 FEW021/// SCT027/// BKN031/// 10/08 Q1019 WNW (300°) 16.1mph 10°C 8°C
14/01/19 00:50 EGJJ 140050Z AUTO 30014KT 9999 FEW013/// OVC032/// 10/09 Q1019 WNW (300°) 16.1mph 10°C 9°C
14/01/19 00:20 EGJJ 140020Z AUTO 29016KT 9999 FEW010/// SCT013/// BKN016/// 10/09 Q1019 WNW (290°) 18.4mph 10°C 9°C
13/01/19 23:50 EGJJ 132350Z AUTO 29017KT 9999 SCT012/// OVC015/// 10/09 Q1019 WNW (290°) 19.6mph 10°C 9°C
13/01/19 23:20 EGJJ 132320Z AUTO 29015KT 9999 SCT010/// OVC013/// 10/09 Q1019 WNW (290°) 17.3mph 10°C 9°C
13/01/19 22:50 EGJJ 132250Z AUTO 29017KT 9999 FEW009/// BKN011/// BKN013/// 10/09 Q1019 WNW (290°) 19.6mph 10°C 9°C
13/01/19 22:20 EGJJ 132220Z AUTO 29017KT 9999 SCT009/// OVC010/// 10/09 Q1019 WNW (290°) 19.6mph 10°C 9°C
13/01/19 21:50 EGJJ 132150Z AUTO 29018KT 9999 SCT009/// BKN010/// OVC013/// 10/09 Q1019 WNW (290°) 20.7mph 10°C 9°C
13/01/19 21:20 EGJJ 132120Z AUTO 29017KT 9999 SCT008/// OVC010/// 10/09 Q1019 WNW (290°) 19.6mph 10°C 9°C
13/01/19 20:50 EGJJ 132050Z 28016KT 9999 BKN007 10/09 Q1019 W (280°) 18.4mph 10°C 9°C
13/01/19 20:20 EGJJ 132020Z 29017KT 9999 SCT008 BKN010 10/09 Q1019 WNW (290°) 19.6mph 10°C 9°C
13/01/19 19:50 EGJJ 131950Z 29020KT 9999 FEW008 BKN010 10/09 Q1018 WNW (290°) 23.0mph 10°C 9°C
13/01/19 19:20 EGJJ 131920Z 29020KT 9999 FEW008 BKN009 10/09 Q1018 WNW (290°) 23.0mph 10°C 9°C
13/01/19 18:50 EGJJ 131850Z 29020G30KT 9999 BKN009 10/09 Q1018 WNW (290°) 23.0mph 34.5mph 10°C 9°C
13/01/19 18:20 EGJJ 131820Z 28019KT 9999 FEW009 BKN010 10/09 Q1018 W (280°) 21.9mph 10°C 9°C
13/01/19 17:20 EGJJ 131720Z 28017KT 9999 FEW009 BKN010 10/09 Q1019 W (280°) 19.6mph 10°C 9°C
13/01/19 16:50 EGJJ 131650Z 28021KT 9999 SCT010 BKN012 10/09 Q1019 W (280°) 24.2mph 10°C 9°C
13/01/19 16:20 EGJJ 131620Z 29021G32KT 1500 FEW011 BKN013 10/08 Q1018 WNW (290°) 24.2mph 36.8mph 10°C 8°C
13/01/19 15:50 EGJJ 131550Z 28022G32KT 9999 FEW011 BKN013 10/08 Q1019 W (280°) 25.3mph 36.8mph 10°C 8°C
13/01/19 15:20 EGJJ 131520Z 28020G30KT 9999 FEW012 BKN016 10/08 Q1018 W (280°) 23.0mph 34.5mph 10°C 8°C
13/01/19 14:50 EGJJ 131450Z 28021KT 9999 FEW012 BKN015 10/08 Q1018 W (280°) 24.2mph 10°C 8°C
13/01/19 14:20 EGJJ 131420Z 28021KT 9999 SCT012 BKN014 10/08 Q1019 W (280°) 24.2mph 10°C 8°C
13/01/19 13:50 EGJJ 131350Z 27021KT 9999 FEW011 BKN013 10/08 Q1020 W (270°) 24.2mph 10°C 8°C
13/01/19 13:20 EGJJ 131320Z 28020KT 9999 -DZ FEW009 SCT012 10/09 Q1020 -DZ W (280°) 23.0mph 10°C 9°C
13/01/19 12:50 EGJJ 131250Z 28021KT 9999 SCT008 BKN010 10/09 Q1021 W (280°) 24.2mph 10°C 9°C
13/01/19 11:50 EGJJ 131150Z 28019KT 9999 SCT008 BKN010 10/09 Q1021 W (280°) 21.9mph 10°C 9°C
13/01/19 11:20 EGJJ 131120Z 28019KT 9999 FEW009 BKN012 10/09 Q1021 W (280°) 21.9mph 10°C 9°C
13/01/19 10:20 EGJJ 131020Z 27022KT 9999 FEW009 BKN010 10/09 Q1022 W (270°) 25.3mph 10°C 9°C
13/01/19 09:20 EGJJ 130920Z 27016KT 9999 FEW007 BKN010 10/09 Q1022 W (270°) 18.4mph 10°C 9°C
13/01/19 08:50 EGJJ 130850Z 28021KT 9999 FEW009 BKN011 10/09 Q1022 W (280°) 24.2mph 10°C 9°C
13/01/19 08:20 EGJJ 130820Z 27019KT 9999 FEW008 BKN011 10/09 Q1022 W (270°) 21.9mph 10°C 9°C
13/01/19 07:50 EGJJ 130750Z 28019KT 9999 FEW008 BKN010 10/09 Q1023 W (280°) 21.9mph 10°C 9°C
13/01/19 07:20 EGJJ 130720Z 27021KT 9000 FEW002 SCT003 BKN005 10/09 Q1022 W (270°) 24.2mph 10°C 9°C
13/01/19 06:50 EGJJ 130650Z 27018KT 9000 4000NW BR SCT002 BKN003 10/10 Q1023 BR W (270°) 20.7mph 10°C 10°C
13/01/19 05:50 EGJJ 130550Z 28017KT 6000 -DZ FEW002 BKN003 10/09 Q1023 -DZ W (280°) 19.6mph 10°C 9°C
13/01/19 05:20 EGJJ 130520Z AUTO 28020KT 9999 BKN002/// OVC004/// 10/09 Q1023 W (280°) 23.0mph 10°C 9°C
13/01/19 04:50 EGJJ 130450Z AUTO 28016G26KT 9999 SCT004/// OVC005/// 10/09 Q1023 W (280°) 18.4mph 29.9mph 10°C 9°C
13/01/19 04:20 EGJJ 130420Z AUTO 27015KT 9999 SCT005/// OVC006/// 10/10 Q1024 W (270°) 17.3mph 10°C 10°C
13/01/19 03:20 EGJJ 130320Z AUTO 28016KT 9999 BKN007/// OVC008/// 10/09 Q1024 W (280°) 18.4mph 10°C 9°C
13/01/19 02:50 EGJJ 130250Z AUTO 28017KT 9999 SCT007/// BKN008/// BKN010/// 10/09 Q1024 W (280°) 19.6mph 10°C 9°C
13/01/19 02:20 EGJJ 130220Z AUTO 28016KT 9999 SCT006/// OVC008/// 10/09 Q1024 W (280°) 18.4mph 10°C 9°C
13/01/19 01:50 EGJJ 130150Z AUTO 28018KT 9999 SCT006/// OVC008/// 10/09 Q1024 W (280°) 20.7mph 10°C 9°C
13/01/19 01:20 EGJJ 130120Z AUTO 29018KT 9999 BKN006/// OVC008/// 10/09 Q1025 WNW (290°) 20.7mph 10°C 9°C
13/01/19 00:50 EGJJ 130050Z AUTO 28017KT 9999 SCT007/// OVC008/// 10/09 Q1025 W (280°) 19.6mph 10°C 9°C
13/01/19 00:20 EGJJ 130020Z AUTO 29018KT 9999 BKN007/// OVC009/// 10/09 Q1025 WNW (290°) 20.7mph 10°C 9°C
12/01/19 23:20 EGJJ 122320Z AUTO 28014KT 9999 BKN009/// OVC010/// 10/09 Q1025 W (280°) 16.1mph 10°C 9°C
12/01/19 22:50 EGJJ 122250Z AUTO 29016KT 9999 SCT009/// OVC011/// 10/09 Q1025 WNW (290°) 18.4mph 10°C 9°C
12/01/19 22:20 EGJJ 122220Z AUTO 30017KT 9999 BKN009/// OVC011/// 10/09 Q1026 WNW (300°) 19.6mph 10°C 9°C
12/01/19 21:20 EGJJ 122120Z AUTO 29015G26KT 9999 OVC012/// 10/08 Q1025 WNW (290°) 17.3mph 29.9mph 10°C 8°C
12/01/19 20:50 EGJJ 122050Z AUTO 29012KT 9999 BKN013/// OVC016/// 10/08 Q1025 WNW (290°) 13.8mph 10°C 8°C
12/01/19 19:50 EGJJ 121950Z 29014KT 9999 SCT015 BKN018 10/08 Q1026 WNW (290°) 16.1mph 10°C 8°C
12/01/19 19:20 EGJJ 121920Z 29016KT 9999 SCT014 BKN016 10/08 Q1026 WNW (290°) 18.4mph 10°C 8°C
12/01/19 18:50 EGJJ 121850Z 29014KT 9999 FEW014 BKN017 10/08 Q1026 WNW (290°) 16.1mph 10°C 8°C
12/01/19 18:20 EGJJ 121820Z 29014KT 9999 FEW011 BKN019 10/09 Q1026 WNW (290°) 16.1mph 10°C 9°C